Time;durP1;ratioP1;P1;durP2;ratioP2;P2;SDS_P1;SDS_P2;PMS_P1;PMS_P2;Temp;Humidity;BMP_temperature;BMP_pressure;BME280_temperature;BME280_humidity;BME280_pressure;Samples;Min_cycle;Max_cycle;Signal;HPM_P1;HPM_P2
2021/09/22 00:01:27;;;;;;;17.00;12.87;;;;;;;;;;5003206;28;20440;-81
2021/09/22 00:03:52;;;;;;;18.05;12.27;;;;;;;;;;5019560;28;20502;-81
2021/09/22 00:06:18;;;;;;;17.37;12.43;;;;;;;;;;5005125;28;20242;-81
2021/09/22 00:08:44;;;;;;;17.70;13.40;;;;;;;;;;5002350;28;20437;-81
2021/09/22 00:11:11;;;;;;;14.10;12.03;;;;;;;;;;5002674;28;20454;-81
2021/09/22 00:13:37;;;;;;;19.80;13.30;;;;;;;;;;5017813;28;20441;-81
2021/09/22 00:16:03;;;;;;;17.95;12.90;;;;;;;;;;5002744;28;20209;-81
2021/09/22 00:18:29;;;;;;;16.45;12.73;;;;;;;;;;5006842;28;20361;-81
2021/09/22 00:20:55;;;;;;;18.02;12.35;;;;;;;;;;4997803;28;20643;-81
2021/09/22 00:23:21;;;;;;;15.57;12.65;;;;;;;;;;4997858;28;20184;-81
2021/09/22 00:25:47;;;;;;;17.77;14.23;;;;;;;;;;5001804;28;20203;-82
2021/09/22 00:28:13;;;;;;;19.37;12.97;;;;;;;;;;5003138;28;20247;-82
2021/09/22 00:30:39;;;;;;;15.23;13.07;;;;;;;;;;5020142;28;20434;-81
2021/09/22 00:33:08;;;;;;;18.00;13.88;;;;;;;;;;5003784;28;20202;-81
2021/09/22 00:35:35;;;;;;;15.80;12.15;;;;;;;;;;5011419;28;20584;-82
2021/09/22 00:38:01;;;;;;;14.98;12.32;;;;;;;;;;5001525;28;20192;-82
2021/09/22 00:40:27;;;;;;;18.30;12.53;;;;;;;;;;5000825;28;20199;-82
2021/09/22 00:42:53;;;;;;;17.40;13.25;;;;;;;;;;5002211;28;20490;-82
2021/09/22 00:45:19;;;;;;;16.30;12.65;;;;;;;;;;5004330;28;20265;-82
2021/09/22 00:47:46;;;;;;;15.90;12.57;;;;;;;;;;4999263;28;20191;-82
2021/09/22 00:50:12;;;;;;;17.63;12.52;;;;;;;;;;5001977;28;20206;-81
2021/09/22 00:52:40;;;;;;;15.40;12.05;;;;;;;;;;5018505;28;20179;-81
2021/09/22 00:55:06;;;;;;;15.30;12.88;;;;;;;;;;4997582;28;20242;-81
2021/09/22 00:57:40;;;;;;;16.05;13.30;;;;;;;;;;5005241;28;20183;-81
2021/09/22 01:00:06;;;;;;;16.50;12.55;;;;;;;;;;4992567;28;20231;-81
2021/09/22 01:02:32;;;;;;;18.52;13.43;;;;;;;;;;5008247;28;20196;-81
2021/09/22 01:04:58;;;;;;;17.02;13.38;;;;;;;;;;5001364;28;20207;-81
2021/09/22 01:07:24;;;;;;;20.00;13.60;;;;;;;;;;5001281;28;20179;-81
2021/09/22 01:09:50;;;;;;;17.73;12.50;;;;;;;;;;5001441;28;20429;-81
2021/09/22 01:12:16;;;;;;;16.88;13.27;;;;;;;;;;5003243;28;20638;-80
2021/09/22 01:14:43;;;;;;;15.95;12.88;;;;;;;;;;5002039;28;20187;-80
2021/09/22 01:17:09;;;;;;;18.02;12.93;;;;;;;;;;5001409;28;20194;-80
2021/09/22 01:19:35;;;;;;;16.40;12.53;;;;;;;;;;5016134;28;20246;-81
2021/09/22 01:22:01;;;;;;;19.35;14.88;;;;;;;;;;5003600;28;20454;-81
2021/09/22 01:24:27;;;;;;;18.30;13.67;;;;;;;;;;5005213;28;20209;-81
2021/09/22 01:26:53;;;;;;;16.70;12.70;;;;;;;;;;5001008;28;20438;-81
2021/09/22 01:29:19;;;;;;;18.20;13.27;;;;;;;;;;5001251;28;20438;-80
2021/09/22 01:31:45;;;;;;;18.05;14.23;;;;;;;;;;4998758;28;20185;-80
2021/09/22 01:34:13;;;;;;;17.05;12.52;;;;;;;;;;5000694;28;20211;-80
2021/09/22 01:36:39;;;;;;;19.20;13.85;;;;;;;;;;5003316;28;20171;-80
2021/09/22 01:39:06;;;;;;;20.35;13.73;;;;;;;;;;5004178;28;20178;-81
2021/09/22 01:41:32;;;;;;;17.23;12.65;;;;;;;;;;4995664;28;20259;-81
2021/09/22 01:43:59;;;;;;;20.90;13.15;;;;;;;;;;4995769;28;20184;-81
2021/09/22 01:46:25;;;;;;;15.50;12.25;;;;;;;;;;4999417;28;20190;-81
2021/09/22 01:48:51;;;;;;;16.52;12.43;;;;;;;;;;5013404;28;20179;-81
2021/09/22 01:51:17;;;;;;;19.00;13.52;;;;;;;;;;4998486;28;20175;-81
2021/09/22 01:53:43;;;;;;;17.40;12.98;;;;;;;;;;5010507;28;20622;-80
2021/09/22 01:56:09;;;;;;;17.80;14.00;;;;;;;;;;5000931;28;20265;-81
2021/09/22 01:58:36;;;;;;;19.02;12.52;;;;;;;;;;5001041;28;20458;-81
2021/09/22 02:01:08;;;;;;;16.65;13.05;;;;;;;;;;5001273;28;20179;-81
2021/09/22 02:03:34;;;;;;;20.17;13.57;;;;;;;;;;5000331;28;20175;-81
2021/09/22 02:06:01;;;;;;;17.45;12.82;;;;;;;;;;4991910;28;20271;-81
2021/09/22 02:08:26;;;;;;;18.20;14.23;;;;;;;;;;4997007;28;20191;-81
2021/09/22 02:10:53;;;;;;;15.45;12.32;;;;;;;;;;4999761;28;20210;-80
2021/09/22 02:13:19;;;;;;;21.33;13.63;;;;;;;;;;5002548;28;20183;-81
2021/09/22 02:15:45;;;;;;;17.60;13.30;;;;;;;;;;5018120;28;20167;-81
2021/09/22 02:18:11;;;;;;;16.77;12.85;;;;;;;;;;4999272;28;20891;-82
2021/09/22 02:20:37;;;;;;;17.02;12.48;;;;;;;;;;5000347;28;20179;-81
2021/09/22 02:23:03;;;;;;;17.95;12.30;;;;;;;;;;5000821;28;20191;-80
2021/09/22 02:25:29;;;;;;;18.00;13.15;;;;;;;;;;5015673;28;20226;-81
2021/09/22 02:27:55;;;;;;;16.55;13.57;;;;;;;;;;5011648;28;20187;-81
2021/09/22 02:30:22;;;;;;;18.87;14.30;;;;;;;;;;5004210;28;20186;-81
2021/09/22 02:32:48;;;;;;;16.88;12.10;;;;;;;;;;4995950;28;20462;-81
2021/09/22 02:35:14;;;;;;;15.45;12.23;;;;;;;;;;5010656;28;20767;-81
2021/09/22 02:37:40;;;;;;;17.38;12.85;;;;;;;;;;4998299;28;20187;-80
2021/09/22 02:40:12;;;;;;;16.95;12.27;;;;;;;;;;4998798;28;20210;-80
2021/09/22 02:42:39;;;;;;;14.15;10.75;;;;;;;;;;5017695;28;20271;-81
2021/09/22 02:45:05;;;;;;;15.82;11.73;;;;;;;;;;5001559;28;20222;-81
2021/09/22 02:47:31;;;;;;;15.35;11.88;;;;;;;;;;4999486;28;20179;-81
2021/09/22 02:49:57;;;;;;;19.73;13.10;;;;;;;;;;5000663;28;20187;-81
2021/09/22 02:52:23;;;;;;;17.13;13.13;;;;;;;;;;5015649;28;20637;-81
2021/09/22 02:54:49;;;;;;;16.37;13.03;;;;;;;;;;5002614;28;20418;-81
2021/09/22 02:57:15;;;;;;;19.10;13.83;;;;;;;;;;5000111;28;20449;-81
2021/09/22 02:59:41;;;;;;;15.93;12.15;;;;;;;;;;5000044;28;20461;-81
2021/09/22 03:02:07;;;;;;;17.27;12.55;;;;;;;;;;4994584;28;20191;-81
2021/09/22 03:04:33;;;;;;;15.90;12.03;;;;;;;;;;5014346;28;20202;-81
2021/09/22 03:06:59;;;;;;;18.02;12.65;;;;;;;;;;5010841;28;20967;-80
2021/09/22 03:09:25;;;;;;;16.83;13.07;;;;;;;;;;5003442;28;20175;-81
2021/09/22 03:11:51;;;;;;;17.60;13.50;;;;;;;;;;4999996;28;20466;-81
2021/09/22 03:14:17;;;;;;;17.50;13.25;;;;;;;;;;4999408;28;20507;-81
2021/09/22 03:16:43;;;;;;;15.40;11.77;;;;;;;;;;5001036;28;20184;-81
2021/09/22 03:19:09;;;;;;;15.40;11.80;;;;;;;;;;5000711;28;20183;-81
2021/09/22 03:21:35;;;;;;;14.75;11.05;;;;;;;;;;5002803;28;20407;-80
2021/09/22 03:24:01;;;;;;;16.35;12.85;;;;;;;;;;5000989;28;20171;-81
2021/09/22 03:26:27;;;;;;;18.92;12.52;;;;;;;;;;5014854;28;20757;-81
2021/09/22 03:28:53;;;;;;;19.60;11.90;;;;;;;;;;5000295;28;20179;-81
2021/09/22 03:31:19;;;;;;;13.93;11.32;;;;;;;;;;4998254;28;20259;-81
2021/09/22 03:33:45;;;;;;;14.85;13.27;;;;;;;;;;5005250;28;20190;-81
2021/09/22 03:36:11;;;;;;;15.85;12.15;;;;;;;;;;5003079;28;20183;-81
2021/09/22 03:38:38;;;;;;;17.48;12.18;;;;;;;;;;5005379;28;20179;-81
2021/09/22 03:41:04;;;;;;;14.70;11.68;;;;;;;;;;4998600;28;20222;-81
2021/09/22 03:43:30;;;;;;;16.33;12.10;;;;;;;;;;5001366;28;20179;-81
2021/09/22 03:45:57;;;;;;;16.00;12.52;;;;;;;;;;5003722;28;20223;-81
2021/09/22 03:48:23;;;;;;;15.30;12.23;;;;;;;;;;5006002;28;20198;-81
2021/09/22 03:50:49;;;;;;;21.08;12.70;;;;;;;;;;4995125;28;20661;-81
2021/09/22 03:53:16;;;;;;;16.40;12.38;;;;;;;;;;4998086;28;20187;-80
2021/09/22 03:55:43;;;;;;;18.77;12.88;;;;;;;;;;5017419;28;20195;-81
2021/09/22 03:58:09;;;;;;;15.90;12.43;;;;;;;;;;5013580;28;20184;-81
2021/09/22 04:00:35;;;;;;;18.07;13.03;;;;;;;;;;5020825;28;20210;-81
2021/09/22 04:03:01;;;;;;;17.92;12.25;;;;;;;;;;5005664;28;20414;-81
2021/09/22 04:05:27;;;;;;;16.85;13.10;;;;;;;;;;5015635;28;20615;-80
2021/09/22 04:07:53;;;;;;;22.55;14.40;;;;;;;;;;5003441;28;20203;-81
2021/09/22 04:10:19;;;;;;;20.70;12.88;;;;;;;;;;5018750;28;20644;-81
2021/09/22 04:12:45;;;;;;;18.40;13.07;;;;;;;;;;4999855;28;20175;-81
2021/09/22 04:15:11;;;;;;;16.27;11.98;;;;;;;;;;5002042;28;20179;-81
2021/09/22 04:17:37;;;;;;;19.42;12.80;;;;;;;;;;5002078;28;20187;-81
2021/09/22 04:20:04;;;;;;;20.08;14.50;;;;;;;;;;5000497;28;20190;-81
2021/09/22 04:22:30;;;;;;;16.85;13.20;;;;;;;;;;5002803;28;20190;-80
2021/09/22 04:24:56;;;;;;;15.93;11.68;;;;;;;;;;5019855;28;20203;-80
2021/09/22 04:27:22;;;;;;;22.27;14.60;;;;;;;;;;5005165;28;20237;-81
2021/09/22 04:29:48;;;;;;;22.90;14.63;;;;;;;;;;4996974;28;20222;-81
2021/09/22 04:32:14;;;;;;;18.10;13.18;;;;;;;;;;5001110;28;20698;-81
2021/09/22 04:34:40;;;;;;;16.17;11.70;;;;;;;;;;4995226;28;20186;-80
2021/09/22 04:37:07;;;;;;;18.23;12.17;;;;;;;;;;5011433;28;20184;-80
2021/09/22 04:39:33;;;;;;;15.65;11.77;;;;;;;;;;5006186;28;20419;-80
2021/09/22 04:41:59;;;;;;;16.95;13.05;;;;;;;;;;5002057;28;20263;-80
2021/09/22 04:44:25;;;;;;;21.27;14.48;;;;;;;;;;5001351;28;20235;-80
2021/09/22 04:46:51;;;;;;;17.88;12.95;;;;;;;;;;5001878;28;20175;-81
2021/09/22 04:49:17;;;;;;;20.00;13.60;;;;;;;;;;5002154;28;20184;-80
2021/09/22 04:51:43;;;;;;;19.90;13.27;;;;;;;;;;5020196;28;20592;-81
2021/09/22 04:54:09;;;;;;;14.98;12.45;;;;;;;;;;5003412;28;20426;-81
2021/09/22 04:56:35;;;;;;;18.42;12.48;;;;;;;;;;5001438;28;20229;-80
2021/09/22 04:59:01;;;;;;;17.48;13.82;;;;;;;;;;5001347;28;20218;-82
2021/09/22 05:01:28;;;;;;;19.67;14.20;;;;;;;;;;5001960;28;20187;-82
2021/09/22 05:03:54;;;;;;;23.58;14.10;;;;;;;;;;5018969;28;20222;-81
2021/09/22 05:06:20;;;;;;;17.63;13.35;;;;;;;;;;5004391;28;20207;-82
2021/09/22 05:08:46;;;;;;;18.33;13.48;;;;;;;;;;5001496;28;20198;-82
2021/09/22 05:11:12;;;;;;;20.20;13.00;;;;;;;;;;5002878;28;20187;-81
2021/09/22 05:13:37;;;;;;;21.37;14.90;;;;;;;;;;5016178;28;20435;-81
2021/09/22 05:16:04;;;;;;;18.80;12.40;;;;;;;;;;5004400;28;20533;-82
2021/09/22 05:18:30;;;;;;;18.27;13.13;;;;;;;;;;4997769;28;20436;-81
2021/09/22 05:20:55;;;;;;;22.73;15.07;;;;;;;;;;4996742;28;20206;-81
2021/09/22 05:23:21;;;;;;;17.50;12.85;;;;;;;;;;5001804;28;20438;-81
2021/09/22 05:25:47;;;;;;;21.07;13.70;;;;;;;;;;5014244;28;20207;-81
2021/09/22 05:28:13;;;;;;;20.27;13.70;;;;;;;;;;5012447;28;20507;-82
2021/09/22 05:30:39;;;;;;;21.27;15.07;;;;;;;;;;5004423;28;20205;-81
2021/09/22 05:33:10;;;;;;;17.95;13.05;;;;;;;;;;5004366;28;20172;-82
2021/09/22 05:35:36;;;;;;;21.05;13.93;;;;;;;;;;5002234;28;20281;-82
2021/09/22 05:38:03;;;;;;;19.55;14.13;;;;;;;;;;5001714;28;20214;-82
2021/09/22 05:40:29;;;;;;;23.95;13.95;;;;;;;;;;5001299;28;20630;-82
2021/09/22 05:42:55;;;;;;;21.73;16.05;;;;;;;;;;5002375;28;20182;-82
2021/09/22 05:45:21;;;;;;;22.55;14.65;;;;;;;;;;5001172;28;20601;-82
2021/09/22 05:47:46;;;;;;;25.27;15.27;;;;;;;;;;4999548;28;20210;-82
2021/09/22 05:50:12;;;;;;;19.40;13.90;;;;;;;;;;5001066;28;20446;-82
2021/09/22 05:52:38;;;;;;;20.33;13.82;;;;;;;;;;4999245;28;20462;-82
2021/09/22 05:55:05;;;;;;;18.87;13.30;;;;;;;;;;5010735;28;20184;-82
2021/09/22 05:57:31;;;;;;;19.75;13.23;;;;;;;;;;5004645;28;20430;-84
2021/09/22 05:59:57;;;;;;;20.80;14.63;;;;;;;;;;5000222;28;20182;-82
2021/09/22 06:02:23;;;;;;;20.02;14.25;;;;;;;;;;4994425;28;20486;-81
2021/09/22 06:04:48;;;;;;;23.17;14.57;;;;;;;;;;5001760;28;20230;-81
2021/09/22 06:07:15;;;;;;;25.35;15.38;;;;;;;;;;5001022;28;20183;-81
2021/09/22 06:09:40;;;;;;;25.55;14.88;;;;;;;;;;5025341;28;20175;-80
2021/09/22 06:12:07;;;;;;;20.27;13.43;;;;;;;;;;4999051;28;20189;-81
2021/09/22 06:14:33;;;;;;;22.83;15.98;;;;;;;;;;5000295;28;20469;-80
2021/09/22 06:16:59;;;;;;;21.58;13.73;;;;;;;;;;5000902;28;20187;-80
2021/09/22 06:19:25;;;;;;;23.08;13.88;;;;;;;;;;5002221;28;20214;-80
2021/09/22 06:21:51;;;;;;;21.77;15.13;;;;;;;;;;5000481;28;20206;-81
2021/09/22 06:24:19;;;;;;;23.73;15.63;;;;;;;;;;5018465;28;20178;-81
2021/09/22 06:26:46;;;;;;;19.33;13.40;;;;;;;;;;5000307;28;20218;-81
2021/09/22 06:29:13;;;;;;;18.95;14.10;;;;;;;;;;5015014;28;20555;-80
2021/09/22 06:31:39;;;;;;;21.30;14.35;;;;;;;;;;5016326;28;20191;-82
2021/09/22 06:34:06;;;;;;;20.95;15.25;;;;;;;;;;5000886;28;20262;-81
2021/09/22 06:36:32;;;;;;;21.83;14.90;;;;;;;;;;5002392;28;20175;-81
2021/09/22 06:38:58;;;;;;;21.73;14.57;;;;;;;;;;5001479;28;20186;-81
2021/09/22 06:41:28;;;;;;;21.85;14.75;;;;;;;;;;4999188;28;20191;-81
2021/09/22 06:43:54;;;;;;;27.05;17.80;;;;;;;;;;5000512;28;20576;-80
2021/09/22 06:46:20;;;;;;;23.95;16.10;;;;;;;;;;5015536;28;20226;-80
2021/09/22 06:48:46;;;;;;;24.33;16.85;;;;;;;;;;5003013;28;20189;-81
2021/09/22 06:51:13;;;;;;;20.53;14.40;;;;;;;;;;5002112;28;20213;-81
2021/09/22 06:53:40;;;;;;;27.45;16.73;;;;;;;;;;4998547;28;20427;-81
2021/09/22 06:56:06;;;;;;;22.27;16.17;;;;;;;;;;4999296;28;20187;-82
2021/09/22 06:58:32;;;;;;;24.25;16.35;;;;;;;;;;5001430;28;20194;-81
2021/09/22 07:00:58;;;;;;;21.10;15.10;;;;;;;;;;4999685;28;20192;-81
2021/09/22 07:03:25;;;;;;;25.77;17.57;;;;;;;;;;5002913;28;20187;-81
2021/09/22 07:05:51;;;;;;;27.90;16.08;;;;;;;;;;4996487;28;20541;-81
2021/09/22 07:08:17;;;;;;;26.65;16.45;;;;;;;;;;5001700;28;20202;-81
2021/09/22 07:10:43;;;;;;;23.42;15.95;;;;;;;;;;5004972;28;20183;-81
2021/09/22 07:13:09;;;;;;;24.25;14.90;;;;;;;;;;5004230;28;20183;-81
2021/09/22 07:15:35;;;;;;;21.50;15.73;;;;;;;;;;5017619;28;20187;-81
2021/09/22 07:18:01;;;;;;;20.42;14.85;;;;;;;;;;5004218;28;20171;-81
2021/09/22 07:20:28;;;;;;;23.67;15.03;;;;;;;;;;5004497;28;20286;-81
2021/09/22 07:22:54;;;;;;;21.67;16.52;;;;;;;;;;5002747;28;20520;-83
2021/09/22 07:25:20;;;;;;;21.27;14.90;;;;;;;;;;5018954;28;20627;-81
2021/09/22 07:27:46;;;;;;;25.75;16.90;;;;;;;;;;5019378;28;20189;-81
2021/09/22 07:30:15;;;;;;;27.23;17.33;;;;;;;;;;5003640;28;20210;-81
2021/09/22 07:32:46;;;;;;;23.52;17.30;;;;;;;;;;4995981;28;20187;-81
2021/09/22 07:35:12;;;;;;;27.75;17.15;;;;;;;;;;5017961;28;20202;-81
2021/09/22 07:37:39;;;;;;;21.30;15.88;;;;;;;;;;5000711;28;20190;-80
2021/09/22 07:40:06;;;;;;;23.05;16.20;;;;;;;;;;4999545;28;20234;-80
2021/09/22 07:42:32;;;;;;;23.00;16.33;;;;;;;;;;5002608;28;20187;-80
2021/09/22 07:44:57;;;;;;;29.20;17.73;;;;;;;;;;5003143;28;20230;-80
2021/09/22 07:47:23;;;;;;;20.02;16.58;;;;;;;;;;5021439;28;20206;-80
2021/09/22 07:49:50;;;;;;;25.73;17.30;;;;;;;;;;5003383;28;20183;-81
2021/09/22 07:52:16;;;;;;;21.80;15.55;;;;;;;;;;5002549;28;20191;-80
2021/09/22 07:54:42;;;;;;;21.05;15.40;;;;;;;;;;5004087;28;20176;-80
2021/09/22 07:57:10;;;;;;;23.15;17.75;;;;;;;;;;5021288;28;20197;-79
2021/09/22 07:59:36;;;;;;;22.25;15.57;;;;;;;;;;5002306;28;20192;-80
2021/09/22 08:02:02;;;;;;;25.10;17.23;;;;;;;;;;5000353;28;20187;-81
2021/09/22 08:04:28;;;;;;;21.52;16.48;;;;;;;;;;5001213;28;20211;-83
2021/09/22 08:06:56;;;;;;;24.42;18.38;;;;;;;;;;5004012;28;20205;-81
2021/09/22 08:09:22;;;;;;;21.40;15.73;;;;;;;;;;5006248;28;20202;-81
2021/09/22 08:11:48;;;;;;;30.27;18.50;;;;;;;;;;5002244;28;20194;-81
2021/09/22 08:14:14;;;;;;;23.70;17.75;;;;;;;;;;5002427;28;20441;-81
2021/09/22 08:16:40;;;;;;;28.77;19.30;;;;;;;;;;5017065;28;20249;-81
2021/09/22 08:19:06;;;;;;;24.00;17.30;;;;;;;;;;4997524;28;20183;-80
2021/09/22 08:21:32;;;;;;;28.33;17.93;;;;;;;;;;5021087;28;20228;-81
2021/09/22 08:23:58;;;;;;;26.00;18.10;;;;;;;;;;5017889;28;20432;-80
2021/09/22 08:26:24;;;;;;;24.90;17.47;;;;;;;;;;5003282;28;20475;-80
2021/09/22 08:28:50;;;;;;;24.08;17.58;;;;;;;;;;4999030;28;20440;-80
2021/09/22 08:31:16;;;;;;;21.97;16.30;;;;;;;;;;4999346;28;20188;-80
2021/09/22 08:33:42;;;;;;;25.23;18.08;;;;;;;;;;5004987;28;20471;-80
2021/09/22 08:36:08;;;;;;;22.23;16.90;;;;;;;;;;5003714;28;20174;-80
2021/09/22 08:38:35;;;;;;;24.58;18.17;;;;;;;;;;4996304;28;20233;-80
2021/09/22 08:41:01;;;;;;;22.70;16.88;;;;;;;;;;5001771;28;20324;-81
2021/09/22 08:43:27;;;;;;;26.10;16.70;;;;;;;;;;5016960;28;20184;-80
2021/09/22 08:45:53;;;;;;;22.38;17.50;;;;;;;;;;5018949;28;20560;-80
2021/09/22 08:48:19;;;;;;;24.70;18.33;;;;;;;;;;5013503;28;20191;-81
2021/09/22 08:50:46;;;;;;;25.00;16.40;;;;;;;;;;5001438;28;20648;-80
2021/09/22 08:53:12;;;;;;;22.38;17.65;;;;;;;;;;5016531;28;20193;-82
2021/09/22 08:55:38;;;;;;;22.13;17.30;;;;;;;;;;5001611;28;20253;-80
2021/09/22 08:58:04;;;;;;;23.63;17.60;;;;;;;;;;5002256;28;20228;-82
2021/09/22 09:00:30;;;;;;;26.05;17.15;;;;;;;;;;5005151;28;20189;-81
2021/09/22 09:02:56;;;;;;;26.80;16.98;;;;;;;;;;5001654;28;20351;-82
2021/09/22 09:05:22;;;;;;;20.80;16.17;;;;;;;;;;5001389;28;20369;-81
2021/09/22 09:07:51;;;;;;;21.17;17.50;;;;;;;;;;5003447;28;20434;-79
2021/09/22 09:10:18;;;;;;;24.15;17.67;;;;;;;;;;5002685;28;20190;-81
2021/09/22 09:12:44;;;;;;;22.05;16.80;;;;;;;;;;5000300;28;20185;-81
2021/09/22 09:15:11;;;;;;;25.75;16.80;;;;;;;;;;5003779;28;20186;-82
2021/09/22 09:17:44;;;;;;;24.17;17.48;;;;;;;;;;5016966;28;20196;-81
2021/09/22 09:20:16;;;;;;;24.52;17.27;;;;;;;;;;4997977;28;20201;-81
2021/09/22 09:22:52;;;;;;;26.35;17.30;;;;;;;;;;5000299;28;20577;-81
2021/09/22 09:25:27;;;;;;;27.17;15.95;;;;;;;;;;5003026;28;20229;-80
2021/09/22 09:27:54;;;;;;;28.33;17.25;;;;;;;;;;5002399;28;20201;-80
2021/09/22 09:30:21;;;;;;;23.20;18.60;;;;;;;;;;4999613;28;20234;-81
2021/09/22 09:32:47;;;;;;;27.48;19.52;;;;;;;;;;5013487;28;20183;-80
2021/09/22 09:35:15;;;;;;;23.15;17.40;;;;;;;;;;5003306;28;20189;-82
2021/09/22 09:37:42;;;;;;;27.77;18.50;;;;;;;;;;5016260;28;20193;-81
2021/09/22 09:40:15;;;;;;;23.25;17.55;;;;;;;;;;5000743;28;20199;-81
2021/09/22 09:42:42;;;;;;;25.77;19.25;;;;;;;;;;5018910;28;20182;-82
2021/09/22 09:45:08;;;;;;;23.92;16.17;;;;;;;;;;5004820;28;20224;-81
2021/09/22 09:47:35;;;;;;;23.77;17.52;;;;;;;;;;5003963;28;20187;-81
2021/09/22 09:50:18;;;;;;;22.77;18.30;;;;;;;;;;5000623;28;20193;-81
2021/09/22 09:52:57;;;;;;;27.08;17.02;;;;;;;;;;4995970;28;20175;-81
2021/09/22 09:55:25;;;;;;;22.85;16.73;;;;;;;;;;5002160;28;20183;-81
2021/09/22 09:57:53;;;;;;;21.90;16.35;;;;;;;;;;5002668;28;20190;-81
2021/09/22 10:00:22;;;;;;;25.50;15.93;;;;;;;;;;5001495;28;20178;-80
2021/09/22 10:02:48;;;;;;;25.27;17.15;;;;;;;;;;5001359;28;20237;-82
2021/09/22 10:05:14;;;;;;;25.23;15.87;;;;;;;;;;5001056;28;20679;-82
2021/09/22 10:07:40;;;;;;;20.20;15.63;;;;;;;;;;4999973;28;20442;-80
2021/09/22 10:10:07;;;;;;;19.15;14.98;;;;;;;;;;5015678;28;20438;-81
2021/09/22 10:12:33;;;;;;;23.83;17.05;;;;;;;;;;5018546;28;20179;-79
2021/09/22 10:15:00;;;;;;;21.45;15.48;;;;;;;;;;5001118;28;20242;-81
2021/09/22 10:17:30;;;;;;;22.08;15.00;;;;;;;;;;5010138;28;20473;-80
2021/09/22 10:19:58;;;;;;;26.20;16.45;;;;;;;;;;5015383;28;20187;-82
2021/09/22 10:22:24;;;;;;;18.45;15.25;;;;;;;;;;5000681;28;20180;-81
2021/09/22 10:24:50;;;;;;;22.40;15.30;;;;;;;;;;5002403;28;20690;-80
2021/09/22 10:27:18;;;;;;;21.55;15.43;;;;;;;;;;5000903;28;20423;-81
2021/09/22 10:30:02;;;;;;;18.05;14.90;;;;;;;;;;4998573;28;20179;-80
2021/09/22 10:32:39;;;;;;;21.10;15.48;;;;;;;;;;5002176;28;20187;-81
2021/09/22 10:35:20;;;;;;;17.50;14.48;;;;;;;;;;4995729;28;20207;-80
2021/09/22 10:37:47;;;;;;;19.63;14.65;;;;;;;;;;4990748;28;20186;-81
2021/09/22 10:40:39;;;;;;;20.55;15.05;;;;;;;;;;4999991;28;20179;-81
2021/09/22 10:43:14;;;;;;;17.33;13.20;;;;;;;;;;4945129;29;20197;-81
2021/09/22 10:45:40;;;;;;;19.27;14.02;;;;;;;;;;4945797;29;20221;-81
2021/09/22 10:48:16;;;;;;;19.08;13.52;;;;;;;;;;4945336;29;20204;-81
2021/09/22 10:50:42;;;;;;;17.50;13.75;;;;;;;;;;4945098;29;20216;-81
2021/09/22 10:53:40;;;;;;;19.87;12.60;;;;;;;;;;4944491;29;20420;-81
2021/09/22 10:56:17;;;;;;;15.55;12.55;;;;;;;;;;4870979;29;20421;-82
2021/09/22 10:58:49;;;;;;;15.88;12.88;;;;;;;;;;4887247;29;20203;-83
2021/09/22 11:01:35;;;;;;;15.05;12.30;;;;;;;;;;4873231;29;20251;-80
2021/09/22 11:04:04;;;;;;;16.55;10.93;;;;;;;;;;4868701;29;20199;-80
2021/09/22 11:06:45;;;;;;;15.70;11.30;;;;;;;;;;4890203;29;20226;-81
2021/09/22 11:09:12;;;;;;;15.52;12.50;;;;;;;;;;4877057;29;20239;-81
2021/09/22 11:11:56;;;;;;;12.95;9.65;;;;;;;;;;4890924;29;20235;-81
2021/09/22 11:14:35;;;;;;;11.23;9.65;;;;;;;;;;4887087;29;20238;-84
2021/09/22 11:17:13;;;;;;;12.70;8.82;;;;;;;;;;4879749;29;20235;-79
2021/09/22 11:19:40;;;;;;;15.05;11.80;;;;;;;;;;4902775;29;20191;-82
2021/09/22 11:22:09;;;;;;;12.05;10.80;;;;;;;;;;4964214;28;20600;-80
2021/09/22 11:24:35;;;;;;;11.48;8.60;;;;;;;;;;4962262;28;20199;-81
2021/09/22 11:27:03;;;;;;;12.02;9.43;;;;;;;;;;4945158;29;20176;-80
2021/09/22 11:29:32;;;;;;;9.65;8.65;;;;;;;;;;4962356;28;20283;-82
2021/09/22 11:31:58;;;;;;;12.85;9.75;;;;;;;;;;4979342;28;20199;-84
2021/09/22 11:34:25;;;;;;;10.55;8.65;;;;;;;;;;5018825;28;20490;-81
2021/09/22 11:37:11;;;;;;;9.38;8.23;;;;;;;;;;5005537;28;20704;-81
2021/09/22 11:39:38;;;;;;;10.45;8.45;;;;;;;;;;5003010;28;20202;-80
2021/09/22 11:42:05;;;;;;;11.85;7.50;;;;;;;;;;5003629;28;20179;-80
2021/09/22 11:44:32;;;;;;;11.18;8.25;;;;;;;;;;5002870;28;20315;-84
2021/09/22 11:46:59;;;;;;;9.35;7.93;;;;;;;;;;5003367;28;20179;-81
2021/09/22 11:49:31;;;;;;;9.43;7.20;;;;;;;;;;5003417;28;20187;-86
2021/09/22 11:52:16;;;;;;;9.98;7.53;;;;;;;;;;5004169;28;20196;-84
2021/09/22 11:54:46;;;;;;;8.57;7.32;;;;;;;;;;5002394;28;20207;-80
2021/09/22 11:57:15;;;;;;;10.20;6.93;;;;;;;;;;5004061;28;20189;-81
2021/09/22 11:59:43;;;;;;;9.40;7.17;;;;;;;;;;5003210;28;20210;-82
2021/09/22 12:02:09;;;;;;;7.80;7.10;;;;;;;;;;5002656;28;20882;-81
2021/09/22 12:04:37;;;;;;;7.63;6.10;;;;;;;;;;5019337;28;20405;-82
2021/09/22 12:07:05;;;;;;;6.75;5.88;;;;;;;;;;5002336;28;20178;-82
2021/09/22 12:09:40;;;;;;;6.63;6.03;;;;;;;;;;5012347;28;20169;-81
2021/09/22 12:12:11;;;;;;;7.47;6.78;;;;;;;;;;4997413;28;20181;-82
2021/09/22 12:14:37;;;;;;;7.78;5.50;;;;;;;;;;4996547;28;20196;-80
2021/09/22 12:17:10;;;;;;;7.68;6.57;;;;;;;;;;5003402;28;20189;-84
2021/09/22 12:19:39;;;;;;;7.65;6.75;;;;;;;;;;5002885;28;20188;-84
2021/09/22 12:22:06;;;;;;;7.80;7.03;;;;;;;;;;4997618;28;20178;-82
2021/09/22 12:24:33;;;;;;;9.25;6.03;;;;;;;;;;5002701;28;20253;-82
2021/09/22 12:27:00;;;;;;;7.82;7.05;;;;;;;;;;5001971;28;20186;-83
2021/09/22 12:29:26;;;;;;;6.57;5.60;;;;;;;;;;5002600;28;20491;-81
2021/09/22 12:31:56;;;;;;;8.30;5.27;;;;;;;;;;4999865;28;20503;-81
2021/09/22 12:34:27;;;;;;;8.83;5.77;;;;;;;;;;5001248;28;20729;-83
2021/09/22 12:36:54;;;;;;;6.10;4.87;;;;;;;;;;5002418;28;20430;-84
2021/09/22 12:39:22;;;;;;;5.70;5.20;;;;;;;;;;5005458;28;20420;-84
2021/09/22 12:41:58;;;;;;;5.80;5.30;;;;;;;;;;5011266;28;20496;-80
2021/09/22 12:44:24;;;;;;;7.73;5.47;;;;;;;;;;5000489;28;20582;-82
2021/09/22 12:46:50;;;;;;;5.70;4.60;;;;;;;;;;5001042;28;20436;-81
2021/09/22 12:49:22;;;;;;;7.23;5.90;;;;;;;;;;5000143;28;20431;-83
2021/09/22 12:51:51;;;;;;;6.00;5.00;;;;;;;;;;5003714;28;20522;-81
2021/09/22 12:54:17;;;;;;;5.00;4.60;;;;;;;;;;5003334;28;20834;-82
2021/09/22 12:56:44;;;;;;;6.90;5.00;;;;;;;;;;5001543;28;20445;-82
2021/09/22 12:59:37;;;;;;;4.50;4.10;;;;;;;;;;5002233;28;20456;-79
2021/09/22 13:02:03;;;;;;;5.30;4.27;;;;;;;;;;4993351;28;20460;-79
2021/09/22 13:04:32;;;;;;;4.80;4.40;;;;;;;;;;5017415;28;20479;-79
2021/09/22 13:06:59;;;;;;;5.47;4.63;;;;;;;;;;5003429;28;20498;-80
2021/09/22 13:09:31;;;;;;;7.50;4.70;;;;;;;;;;5004503;28;20472;-80
2021/09/22 13:11:57;;;;;;;4.90;4.47;;;;;;;;;;5000968;28;20480;-79
2021/09/22 13:14:24;;;;;;;5.00;4.60;;;;;;;;;;5001582;28;20492;-79
2021/09/22 13:16:55;;;;;;;5.73;4.83;;;;;;;;;;5002281;28;20442;-79
2021/09/22 13:19:29;;;;;;;5.33;4.90;;;;;;;;;;5001865;28;20431;-81
2021/09/22 13:22:00;;;;;;;4.53;4.00;;;;;;;;;;5018319;28;20460;-79
2021/09/22 13:24:27;;;;;;;4.77;4.33;;;;;;;;;;5004808;28;20793;-79
2021/09/22 13:26:54;;;;;;;4.50;4.10;;;;;;;;;;5001377;28;20549;-79
2021/09/22 13:29:21;;;;;;;4.40;4.00;;;;;;;;;;5001588;28;20438;-79
2021/09/22 13:31:48;;;;;;;4.17;3.87;;;;;;;;;;5001265;28;20526;-78
2021/09/22 13:34:14;;;;;;;4.43;4.03;;;;;;;;;;5017243;28;20462;-79
2021/09/22 13:36:40;;;;;;;3.87;3.67;;;;;;;;;;5004399;28;20450;-80
2021/09/22 13:39:07;;;;;;;4.03;3.73;;;;;;;;;;5002409;28;20445;-81
2021/09/22 13:41:34;;;;;;;4.37;3.67;;;;;;;;;;5000492;28;20442;-81
2021/09/22 13:44:00;;;;;;;4.30;3.90;;;;;;;;;;5000544;28;20502;-81
2021/09/22 13:46:27;;;;;;;4.03;3.50;;;;;;;;;;5001503;28;20993;-79
2021/09/22 13:48:53;;;;;;;4.40;4.00;;;;;;;;;;5002810;28;20418;-81
2021/09/22 13:51:19;;;;;;;4.60;4.10;;;;;;;;;;4998864;28;20837;-81
2021/09/22 13:53:48;;;;;;;4.63;4.30;;;;;;;;;;4994422;28;20565;-82
2021/09/22 13:56:15;;;;;;;4.10;3.80;;;;;;;;;;5000740;28;20452;-81
2021/09/22 13:58:41;;;;;;;3.80;3.60;;;;;;;;;;5001387;28;20461;-79
2021/09/22 14:01:08;;;;;;;4.20;3.90;;;;;;;;;;5016237;28;20520;-78
2021/09/22 14:03:34;;;;;;;4.27;3.97;;;;;;;;;;5020114;28;20457;-82
2021/09/22 14:06:00;;;;;;;3.97;3.57;;;;;;;;;;5001367;28;20532;-80
2021/09/22 14:08:27;;;;;;;4.40;4.00;;;;;;;;;;5000657;28;20441;-83
2021/09/22 14:10:53;;;;;;;4.10;3.33;;;;;;;;;;5000713;28;20452;-79
2021/09/22 14:13:19;;;;;;;3.50;3.13;;;;;;;;;;5015771;28;20459;-79
2021/09/22 14:15:47;;;;;;;4.20;3.53;;;;;;;;;;5017835;28;20426;-78
2021/09/22 14:18:14;;;;;;;4.63;4.10;;;;;;;;;;5002334;28;20438;-79
2021/09/22 14:20:42;;;;;;;6.23;3.90;;;;;;;;;;5000468;28;20472;-78
2021/09/22 14:23:09;;;;;;;2.93;2.73;;;;;;;;;;5000384;28;20452;-78